»·PEaware :: N6238A KAVX-KSAN

N6238A :: KAVX-KSAN

FLIGHT INFORMATION

Flight Status: Arrived
Operator: Privately registered:
United States
More flights under this callsign
Pilot: Nicholas J. (33481)
Aircraft: BEECH AIRCRAFT BONANZA
(BE36)
More flights by this aircraft type
Origin: KAVX Catalina
United States
Destination: KSAN San Diego Intl-Lindbergh
United States
More flights between these airports :: More routes between these airports
Route: SXC V208 OCN V23 MZB
File this flight plan on PilotEdge
Remarks:
Altitude:
(Current/Filed)
5,000ft
Speed:
(Current/Filed)
105kts
Departed: 09-Oct-21 08:00 PM
Arrived: 09-Oct-21 08:59 PM
Distance/Time
Traveled:
74nm/0:59
Distance/Time
To Go:
Arrived

Flight Plot

Page will automatically refresh every two minutes.


Map Options




Map Legend


Flown Route
Filed Route
Departure Airport
Arrival Airport
Navaid (VOR, NDB)
Fix

Horizontal Profiles

Position Reports

Time Latitude Longitude Heading Altitude Ground
Speed
09-Oct-21 19:50 33.403367 -118.415472 138 1579ft 0kts
09-Oct-21 19:51 33.403367 -118.415472 138 1579ft 0kts
09-Oct-21 19:52 33.403367 -118.415472 138 1579ft 0kts
09-Oct-21 19:53 33.403367 -118.415472 138 1579ft 0kts
09-Oct-21 19:54 33.403367 -118.415472 138 1579ft 0kts
09-Oct-21 19:55 33.403367 -118.415472 138 1579ft 0kts
09-Oct-21 19:56 33.403288 -118.415470 213 1579ft 4kts
09-Oct-21 19:57 33.404766 -118.415497 56 1574ft 13kts
09-Oct-21 19:58 33.407132 -118.411488 46 1551ft 0kts
09-Oct-21 19:59 33.405322 -118.415270 235 1572ft 65kts
09-Oct-21 20:00 33.386071 -118.419744 180 2317ft 81kts
09-Oct-21 20:01 33.372954 -118.404111 99 3126ft 84kts
09-Oct-21 20:02 33.369385 -118.376140 99 3905ft 85kts
09-Oct-21 20:03 33.364718 -118.340337 100 4021ft 126kts
09-Oct-21 20:04 33.359262 -118.297899 100 4110ft 121kts
09-Oct-21 20:05 33.354189 -118.257899 93 4304ft 115kts
09-Oct-21 20:06 33.349751 -118.225098 92 5085ft 103kts
09-Oct-21 20:07 33.344595 -118.186363 93 5162ft 125kts
09-Oct-21 20:08 33.339089 -118.144953 93 5163ft 125kts
09-Oct-21 20:09 33.333117 -118.100918 93 5166ft 140kts
09-Oct-21 20:10 33.326707 -118.053168 94 5026ft 144kts
09-Oct-21 20:11 33.320439 -118.006307 94 5023ft 142kts
09-Oct-21 20:12 33.314190 -117.959694 94 5024ft 141kts
09-Oct-21 20:13 33.307946 -117.913164 95 5022ft 142kts
09-Oct-21 20:14 33.301681 -117.866546 95 5023ft 142kts
09-Oct-21 20:15 33.295449 -117.820191 97 5003ft 139kts
09-Oct-21 20:16 33.289343 -117.774840 97 4997ft 138kts
09-Oct-21 20:17 33.283233 -117.729551 98 4996ft 138kts
09-Oct-21 20:18 33.277114 -117.684267 98 4997ft 138kts
09-Oct-21 20:19 33.270990 -117.638992 99 4997ft 138kts
09-Oct-21 20:20 33.264845 -117.593659 99 4998ft 138kts
09-Oct-21 20:21 33.258694 -117.548405 98 4996ft 138kts
09-Oct-21 20:22 33.252541 -117.503288 98 5011ft 137kts
09-Oct-21 20:23 33.246354 -117.458133 98 5011ft 138kts
09-Oct-21 20:24 33.235890 -117.415520 150 4999ft 137kts
09-Oct-21 20:25 33.200578 -117.401101 163 5003ft 133kts
09-Oct-21 20:26 33.165663 -117.386489 164 5003ft 132kts
09-Oct-21 20:27 33.130823 -117.371871 164 5002ft 132kts
09-Oct-21 20:28 33.095480 -117.356723 164 5008ft 136kts
09-Oct-21 20:29 33.059499 -117.341538 165 5010ft 137kts
09-Oct-21 20:30 33.023488 -117.326352 165 5011ft 137kts
09-Oct-21 20:31 32.987488 -117.311190 165 5011ft 137kts
09-Oct-21 20:32 32.951471 -117.296043 164 5010ft 137kts
09-Oct-21 20:33 32.929606 -117.260545 112 5004ft 138kts
09-Oct-21 20:34 32.914241 -117.218318 112 5013ft 139kts
09-Oct-21 20:35 32.898530 -117.176047 112 5007ft 142kts
09-Oct-21 20:36 32.882029 -117.132819 112 5013ft 144kts
09-Oct-21 20:37 32.865399 -117.089589 112 5014ft 144kts
09-Oct-21 20:38 32.848746 -117.046433 112 4998ft 141kts
09-Oct-21 20:39 32.832332 -117.003949 112 5012ft 143kts
09-Oct-21 20:40 32.815619 -116.960797 112 5015ft 143kts
09-Oct-21 20:41 32.798853 -116.917645 112 5016ft 143kts
09-Oct-21 20:42 32.782005 -116.874487 112 5004ft 143kts
09-Oct-21 20:43 32.765387 -116.831539 112 5009ft 142kts
09-Oct-21 20:44 32.736600 -116.817659 212 5026ft 133kts
09-Oct-21 20:45 32.703678 -116.837170 212 5020ft 129kts
09-Oct-21 20:46 32.673128 -116.857230 212 5002ft 124kts
09-Oct-21 20:47 32.642788 -116.877273 217 4993ft 122kts
09-Oct-21 20:48 32.655944 -116.908245 312 4853ft 130kts
09-Oct-21 20:49 32.672454 -116.937482 286 4264ft 94kts
09-Oct-21 20:50 32.679436 -116.966197 284 3591ft 75kts
09-Oct-21 20:51 32.686405 -116.995039 283 3639ft 100kts
09-Oct-21 20:52 32.693493 -117.024509 283 2710ft 86kts
09-Oct-21 20:53 32.700369 -117.053078 284 2524ft 92kts
09-Oct-21 20:54 32.707264 -117.081532 285 2009ft 87kts
09-Oct-21 20:55 32.713735 -117.108085 285 1119ft 88kts
09-Oct-21 20:56 32.720858 -117.137149 288 760ft 92kts
09-Oct-21 20:57 32.727575 -117.165316 286 515ft 93kts
09-Oct-21 20:58 32.733060 -117.184265 7 19ft 5kts
09-Oct-21 20:59 32.734204 -117.185414 341 18ft 11kts
09-Oct-21 21:00 32.734253 -117.185433 341 18ft 0kts

Navigation Log

Ident Type
Flight plan parsing failed, navigation log unavailable